createdAt,value
2023-02-23T06:04:17.684Z,1.90
2023-02-23T06:09:21.340Z,1.20
2023-02-23T06:14:24.931Z,0.93
2023-02-23T06:19:31.711Z,2.90
2023-02-23T06:24:35.440Z,0.95
2023-02-23T06:29:39.221Z,1.33
2023-02-23T06:34:44.868Z,0.70
2023-02-23T06:39:50.476Z,4.53
2023-02-23T06:44:54.065Z,4.80
2023-02-23T06:49:59.909Z,2.85
2023-02-23T06:55:03.564Z,1.98
2023-02-23T07:00:08.417Z,1.33
2023-02-23T07:05:13.429Z,6.18
2023-02-23T07:10:17.280Z,1.73
2023-02-23T07:15:20.904Z,2.75
2023-02-23T07:20:25.929Z,2.15
2023-02-23T07:25:29.681Z,1.75
2023-02-23T07:30:33.418Z,4.32
2023-02-23T07:35:38.499Z,1.40
2023-02-23T07:40:42.168Z,2.75
2023-02-23T07:45:46.862Z,1.90
2023-02-23T07:50:52.009Z,2.05
2023-02-23T07:55:58.961Z,2.25
2023-02-23T08:01:02.668Z,2.65
2023-02-23T08:06:08.179Z,2.78
2023-02-23T08:11:12.157Z,2.37
2023-02-23T08:16:16.528Z,2.40
2023-02-23T08:21:21.827Z,5.10
2023-02-23T08:26:25.746Z,3.40
2023-02-23T08:31:29.502Z,3.10
2023-02-23T08:36:34.587Z,7.78
2023-02-23T08:41:38.288Z,2.95
2023-02-23T08:46:41.920Z,2.37
2023-02-23T08:51:47.465Z,1.87
2023-02-23T08:56:51.078Z,3.92
2023-02-23T09:01:54.761Z,5.05
2023-02-23T09:06:59.814Z,3.00
2023-02-23T09:12:03.454Z,4.22
2023-02-23T09:17:07.113Z,2.55
2023-02-23T09:22:12.292Z,3.62
2023-02-23T09:27:15.948Z,3.50
2023-02-23T09:32:19.697Z,3.42
2023-02-23T09:37:25.192Z,1.98
2023-02-23T09:42:41.240Z,2.42
2023-02-23T09:47:57.885Z,1.37
2023-02-23T09:53:06.723Z,3.42
2023-02-23T09:58:20.893Z,2.72
2023-02-23T10:03:28.649Z,8.15
2023-02-23T10:08:44.477Z,7.30
2023-02-23T10:13:57.412Z,4.82
2023-02-23T10:19:08.681Z,1.98
2023-02-23T10:24:19.445Z,2.85
2023-02-23T10:29:27.997Z,7.65
2023-02-23T10:34:32.526Z,8.80
2023-02-23T10:39:37.965Z,5.43
2023-02-23T10:44:44.606Z,3.37
2023-02-23T10:49:49.968Z,3.12
2023-02-23T10:54:54.983Z,5.00
2023-02-23T11:00:32.932Z,4.25
2023-02-23T11:05:44.466Z,2.47
2023-02-23T11:11:20.386Z,9.27
2023-02-23T11:16:25.564Z,2.03
2023-02-23T11:21:33.468Z,2.25
2023-02-23T11:26:42.310Z,3.10
2023-02-23T11:31:51.036Z,2.28
2023-02-23T11:37:02.728Z,1.92
2023-02-23T11:42:20.004Z,7.70
2023-02-23T11:47:26.072Z,3.37
2023-02-23T11:52:31.381Z,3.25
2023-02-23T11:57:37.658Z,2.40
2023-02-23T12:02:50.939Z,2.50
2023-02-23T12:08:00.941Z,3.40
2023-02-23T12:13:18.128Z,4.47
2023-02-23T12:18:38.421Z,6.68
2023-02-23T12:23:48.339Z,4.40
2023-02-23T12:28:59.723Z,3.17
2023-02-23T12:34:11.101Z,5.43
2023-02-23T12:39:22.497Z,4.87
2023-02-23T12:44:36.246Z,2.78
2023-02-23T12:49:45.560Z,1.17
2023-02-23T12:54:49.885Z,2.65
2023-02-23T13:00:30.939Z,2.65
2023-02-23T13:05:39.625Z,3.00
2023-02-23T13:10:49.452Z,1.73
2023-02-23T13:16:02.683Z,4.93
2023-02-23T13:21:14.161Z,1.25
2023-02-23T13:26:29.386Z,0.95
2023-02-23T13:31:36.942Z,1.17
2023-02-23T13:36:42.079Z,1.08
2023-02-23T13:41:51.607Z,4.82
2023-02-23T13:47:01.508Z,1.20
2023-02-23T13:52:20.716Z,1.45
2023-02-23T13:57:25.306Z,1.12
2023-02-23T14:02:40.897Z,0.70
2023-02-23T14:07:48.077Z,1.52
2023-02-23T14:13:24.924Z,1.40
2023-02-23T14:18:55.423Z,4.15
2023-02-23T14:24:15.432Z,0.90
2023-02-23T14:29:25.675Z,0.65
2023-02-23T14:34:51.858Z,0.82
2023-02-23T14:39:57.994Z,1.05
2023-02-23T14:45:06.888Z,1.05
2023-02-23T14:50:26.481Z,0.90
2023-02-23T14:55:35.307Z,1.12
2023-02-23T15:00:44.082Z,1.67
2023-02-23T15:05:53.770Z,1.50
2023-02-23T15:11:03.170Z,1.42
2023-02-23T15:16:10.080Z,0.85
2023-02-23T15:21:19.545Z,1.50
2023-02-23T15:26:32.127Z,1.02
2023-02-23T15:31:36.981Z,1.95
2023-02-23T15:36:44.215Z,1.12
2023-02-23T15:41:50.069Z,2.58
2023-02-23T15:46:57.053Z,2.12
2023-02-23T15:52:04.674Z,0.98
2023-02-23T15:57:17.416Z,2.00
2023-02-23T16:02:24.641Z,3.08
2023-02-23T16:07:38.248Z,4.50
2023-02-23T16:12:45.513Z,1.10
2023-02-23T16:17:53.053Z,3.58
2023-02-23T16:22:59.424Z,3.90
2023-02-23T16:28:05.787Z,4.90
2023-02-23T16:33:18.922Z,3.12
2023-02-23T16:38:28.183Z,4.22
2023-02-23T16:43:32.838Z,3.10
2023-02-23T16:48:36.830Z,4.47
2023-02-23T16:53:41.971Z,4.17
2023-02-23T16:58:48.429Z,4.68
2023-02-23T17:03:54.014Z,3.78
2023-02-23T17:08:59.080Z,4.97
2023-02-23T17:14:02.775Z,5.70
2023-02-23T17:19:07.446Z,6.50
2023-02-23T17:24:12.619Z,10.98
2023-02-23T17:29:17.072Z,8.77
2023-02-23T17:39:28.177Z,6.20
2023-02-23T17:44:32.407Z,6.20
2023-02-23T17:49:36.125Z,7.22
2023-02-23T17:54:41.251Z,8.93
2023-02-23T17:59:44.958Z,8.25
2023-02-23T18:04:49.335Z,5.77
2023-02-23T18:14:57.901Z,8.30
2023-02-23T18:20:01.627Z,7.00
2023-02-23T18:25:07.854Z,6.22
2023-02-23T18:30:13.015Z,7.20
2023-02-23T18:35:16.858Z,10.57
2023-02-23T18:40:23.963Z,6.75
2023-02-23T18:45:28.587Z,6.85
2023-02-23T18:55:38.120Z,8.25
2023-02-23T19:00:42.908Z,6.18
2023-02-23T19:05:50.140Z,5.43
2023-02-23T19:10:55.255Z,5.03
2023-02-23T19:15:59.819Z,5.15
2023-02-23T19:21:03.502Z,5.35
2023-02-23T19:26:08.760Z,4.43
2023-02-23T19:31:15.957Z,3.67
2023-02-23T19:36:26.155Z,6.03
2023-02-23T19:41:31.210Z,4.70
2023-02-23T19:46:35.244Z,5.60
2023-02-23T19:51:39.010Z,4.78
2023-02-23T19:56:44.664Z,4.97
2023-02-23T20:01:51.498Z,5.90
2023-02-23T20:06:55.243Z,5.22
2023-02-23T20:12:00.175Z,6.20
2023-02-23T20:17:05.490Z,2.55
2023-02-23T20:22:09.907Z,4.32
2023-02-23T20:27:14.854Z,3.03
2023-02-23T20:32:19.037Z,3.90
2023-02-23T20:37:22.736Z,6.72
2023-02-23T20:42:28.712Z,6.17
2023-02-23T20:47:32.489Z,4.40
2023-02-23T20:52:36.082Z,8.13
2023-02-23T20:57:41.414Z,5.10
2023-02-23T21:02:45.175Z,3.97
2023-02-23T21:07:49.390Z,4.18
2023-02-23T21:12:56.052Z,7.37
2023-02-23T21:18:00.482Z,7.72
2023-02-23T21:28:09.405Z,3.97
2023-02-23T21:33:13.065Z,7.93
2023-02-23T21:38:16.653Z,5.03
2023-02-23T21:43:22.053Z,9.93
2023-02-23T21:48:25.981Z,5.95
2023-02-23T21:53:29.604Z,9.18
2023-02-23T21:58:34.679Z,7.67
2023-02-23T22:03:38.285Z,4.93
2023-02-23T22:08:43.105Z,8.33
2023-02-23T22:13:49.713Z,6.05
2023-02-23T22:18:54.028Z,12.55
2023-02-23T22:23:57.661Z,7.90
2023-02-23T22:29:02.678Z,8.40
2023-02-23T22:34:07.306Z,5.95
2023-02-23T22:39:12.999Z,6.53
2023-02-23T22:44:20.355Z,8.10
2023-02-23T22:49:24.487Z,9.13
2023-02-23T22:54:28.178Z,8.98
2023-02-23T22:59:33.271Z,11.00
2023-02-23T23:04:37.792Z,8.18
2023-02-23T23:09:41.437Z,10.82
2023-02-23T23:14:47.348Z,8.60
2023-02-23T23:19:51.064Z,12.75
2023-02-23T23:24:55.054Z,9.40
2023-02-23T23:30:00.009Z,9.52
